Terminal Aerodrome Forecast
Issued by NWS Cleveland, OH

Home | Current Version | Previous Version | Graphics & Text | Print | Product List | Glossary On
Versions: 1 2 3 4 5 6 7 8 9 10 11 12 13 14 15 16 17 18 19
000
FTUS41 KCLE 241100
TAFERI
TAF
KERI 241139Z 2412/2512 18012KT P6SM SCT180
     FM241700 21018G25KT P6SM SCT030 BKN150
     FM250000 22015G22KT 5SM -SN SCT025 OVC035
     FM250500 26015G22KT 2SM -SN SCT008 OVC018=

USA.gov is the U.S. government's official web portal to all federal, state and local government web resources and services.